Time;durP1;ratioP1;P1;durP2;ratioP2;P2;SDS_P1;SDS_P2;PMS_P1;PMS_P2;Temp;Humidity;BMP_temperature;BMP_pressure;BME280_temperature;BME280_humidity;BME280_pressure;Samples;Min_cycle;Max_cycle;Signal;HPM_P1;HPM_P2
2023/02/23 00:02:17;;;;;;;78.27;19.60;;;;;;;;;;5074141;28;20487;-67
2023/02/23 00:04:44;;;;;;;81.83;18.27;;;;;;;;;;5074108;28;20467;-67
2023/02/23 00:07:11;;;;;;;80.23;19.40;;;;;;;;;;5074223;28;20447;-67
2023/02/23 00:09:39;;;;;;;79.60;18.87;;;;;;;;;;5073743;28;20529;-67
2023/02/23 00:12:07;;;;;;;77.50;18.47;;;;;;;;;;5073889;28;20454;-67
2023/02/23 00:14:37;;;;;;;80.60;19.37;;;;;;;;;;5073988;28;20464;-68
2023/02/23 00:17:04;;;;;;;80.72;20.77;;;;;;;;;;5073993;28;20501;-66
2023/02/23 00:19:36;;;;;;;80.10;17.98;;;;;;;;;;5073689;28;20205;-67
2023/02/23 00:22:03;;;;;;;81.33;19.80;;;;;;;;;;5073719;28;20222;-67
2023/02/23 00:24:30;;;;;;;84.43;20.90;;;;;;;;;;5073380;28;20483;-68
2023/02/23 00:26:58;;;;;;;83.87;19.73;;;;;;;;;;5073592;28;20497;-67
2023/02/23 00:29:25;;;;;;;80.10;20.88;;;;;;;;;;5073483;28;20590;-67
2023/02/23 00:31:54;;;;;;;78.30;20.00;;;;;;;;;;5073776;28;20201;-67
2023/02/23 00:34:22;;;;;;;79.90;19.48;;;;;;;;;;5073469;28;20867;-67
2023/02/23 00:36:50;;;;;;;79.27;19.70;;;;;;;;;;5073472;28;20697;-67
2023/02/23 00:39:20;;;;;;;81.83;21.27;;;;;;;;;;5073009;28;21093;-67
2023/02/23 00:41:48;;;;;;;81.70;19.20;;;;;;;;;;5073498;28;20505;-67
2023/02/23 00:44:15;;;;;;;79.93;20.97;;;;;;;;;;5073426;28;20204;-67
2023/02/23 00:46:43;;;;;;;80.10;19.73;;;;;;;;;;5073112;28;20935;-67
2023/02/23 00:49:11;;;;;;;82.63;19.47;;;;;;;;;;5072732;28;20456;-67
2023/02/23 00:51:39;;;;;;;78.40;18.25;;;;;;;;;;5072929;28;20805;-67
2023/02/23 00:54:07;;;;;;;81.15;19.15;;;;;;;;;;5073211;28;20211;-67
2023/02/23 00:56:34;;;;;;;80.50;20.85;;;;;;;;;;5073157;28;20231;-67
2023/02/23 00:59:01;;;;;;;82.30;19.50;;;;;;;;;;5072713;28;20208;-67
2023/02/23 01:01:28;;;;;;;79.47;20.20;;;;;;;;;;5072731;28;20482;-66
2023/02/23 01:03:55;;;;;;;78.43;19.40;;;;;;;;;;5073105;28;20210;-67
2023/02/23 01:06:24;;;;;;;82.07;19.87;;;;;;;;;;5072535;28;20471;-68
2023/02/23 01:08:55;;;;;;;84.93;19.33;;;;;;;;;;5072299;28;20448;-67
2023/02/23 01:11:23;;;;;;;79.63;19.70;;;;;;;;;;5073024;28;20516;-67
2023/02/23 01:13:52;;;;;;;78.67;19.17;;;;;;;;;;5072670;28;20839;-67
2023/02/23 01:16:20;;;;;;;80.73;19.70;;;;;;;;;;5072506;28;20471;-67
2023/02/23 01:18:48;;;;;;;79.65;19.80;;;;;;;;;;5072031;28;20450;-67
2023/02/23 01:21:16;;;;;;;79.25;18.75;;;;;;;;;;5072361;28;20278;-67
2023/02/23 01:23:44;;;;;;;82.10;21.40;;;;;;;;;;5072516;28;20224;-67
2023/02/23 01:26:18;;;;;;;79.27;19.47;;;;;;;;;;5072398;28;20574;-67
2023/02/23 01:28:45;;;;;;;80.72;20.88;;;;;;;;;;5071956;28;20987;-68
2023/02/23 01:31:12;;;;;;;78.53;19.70;;;;;;;;;;5072219;28;20205;-68
2023/02/23 01:33:39;;;;;;;84.53;21.77;;;;;;;;;;5072436;28;20581;-67
2023/02/23 01:36:06;;;;;;;83.03;21.85;;;;;;;;;;5072263;28;20464;-68
2023/02/23 01:38:34;;;;;;;83.77;21.87;;;;;;;;;;5071455;28;20220;-67
2023/02/23 01:41:02;;;;;;;80.90;22.33;;;;;;;;;;5072567;28;20454;-68
2023/02/23 01:43:29;;;;;;;81.93;22.10;;;;;;;;;;5072206;28;20483;-67
2023/02/23 01:45:57;;;;;;;85.60;20.27;;;;;;;;;;5071956;28;20991;-68
2023/02/23 01:48:27;;;;;;;82.97;21.10;;;;;;;;;;5072233;28;20447;-67
2023/02/23 01:50:56;;;;;;;82.00;21.77;;;;;;;;;;5072139;28;20454;-67
2023/02/23 01:53:24;;;;;;;86.37;24.10;;;;;;;;;;5071842;28;21130;-68
2023/02/23 01:55:54;;;;;;;85.23;21.77;;;;;;;;;;5071970;28;20554;-68
2023/02/23 01:58:23;;;;;;;80.60;22.90;;;;;;;;;;5071856;28;20443;-67
2023/02/23 02:00:53;;;;;;;80.40;20.17;;;;;;;;;;5071710;28;20447;-67
2023/02/23 02:03:23;;;;;;;82.70;20.57;;;;;;;;;;5072237;28;20309;-67
2023/02/23 02:05:50;;;;;;;80.77;21.10;;;;;;;;;;5071967;28;20475;-67
2023/02/23 02:08:18;;;;;;;86.67;21.17;;;;;;;;;;5071997;28;20447;-67
2023/02/23 02:10:46;;;;;;;85.23;22.20;;;;;;;;;;5071604;28;20447;-68
2023/02/23 02:13:19;;;;;;;84.15;22.40;;;;;;;;;;5071990;28;20479;-67
2023/02/23 02:16:05;;;;;;;84.37;21.80;;;;;;;;;;5071962;28;20643;-67
2023/02/23 02:18:37;;;;;;;86.28;21.45;;;;;;;;;;5071560;28;20457;-67
2023/02/23 02:21:18;;;;;;;84.50;21.70;;;;;;;;;;5071700;28;20304;-67
2023/02/23 02:23:55;;;;;;;82.10;22.77;;;;;;;;;;5072060;28;20304;-67
2023/02/23 02:26:25;;;;;;;77.97;19.80;;;;;;;;;;5071963;28;20297;-67
2023/02/23 02:29:10;;;;;;;84.70;23.23;;;;;;;;;;5071458;28;20444;-68
2023/02/23 02:31:57;;;;;;;82.27;22.60;;;;;;;;;;5041000;28;20201;-67
2023/02/23 02:34:43;;;;;;;84.03;23.07;;;;;;;;;;5071833;28;20926;-68
2023/02/23 02:37:19;;;;;;;80.00;22.17;;;;;;;;;;5071735;28;20639;-68
2023/02/23 02:39:52;;;;;;;88.57;22.98;;;;;;;;;;5071240;28;20455;-67
2023/02/23 02:42:21;;;;;;;83.57;21.98;;;;;;;;;;5071658;28;20216;-67
2023/02/23 02:44:51;;;;;;;82.60;22.90;;;;;;;;;;5071349;28;20740;-67
2023/02/23 02:47:23;;;;;;;82.50;22.55;;;;;;;;;;5071724;28;20455;-68
2023/02/23 02:49:52;;;;;;;82.60;21.63;;;;;;;;;;5071160;28;20205;-67
2023/02/23 02:52:24;;;;;;;83.57;21.87;;;;;;;;;;5075210;28;20454;-67
2023/02/23 02:54:53;;;;;;;84.67;22.53;;;;;;;;;;5075305;28;20471;-67
2023/02/23 02:57:24;;;;;;;85.57;22.40;;;;;;;;;;5075580;28;20443;-68
2023/02/23 04:17:47;;;;;;;81.57;23.43;;;;;;;;;;5073943;28;20518;-67
2023/02/23 04:20:14;;;;;;;90.33;25.47;;;;;;;;;;5073548;28;20443;-68
2023/02/23 04:22:42;;;;;;;86.40;25.43;;;;;;;;;;5073400;28;20503;-67
2023/02/23 04:25:10;;;;;;;88.10;24.17;;;;;;;;;;5073666;28;21016;-67
2023/02/23 04:27:37;;;;;;;82.03;22.92;;;;;;;;;;5073527;28;20539;-66
2023/02/23 04:30:05;;;;;;;81.17;22.63;;;;;;;;;;5073141;28;20685;-67
2023/02/23 04:32:34;;;;;;;88.87;24.13;;;;;;;;;;5073693;28;20554;-68
2023/02/23 04:35:01;;;;;;;83.10;23.17;;;;;;;;;;5073615;28;20478;-67
2023/02/23 04:37:28;;;;;;;86.53;23.43;;;;;;;;;;5073472;28;20451;-67
2023/02/23 04:39:55;;;;;;;84.73;22.47;;;;;;;;;;5073281;28;20792;-67
2023/02/23 04:42:22;;;;;;;82.43;22.20;;;;;;;;;;5073170;28;20480;-67
2023/02/23 04:44:49;;;;;;;80.50;22.47;;;;;;;;;;5073596;28;20881;-68
2023/02/23 04:47:17;;;;;;;79.30;22.57;;;;;;;;;;5073418;28;20466;-67
2023/02/23 04:49:45;;;;;;;84.57;23.57;;;;;;;;;;5072833;28;20451;-67
2023/02/23 04:52:12;;;;;;;83.17;23.43;;;;;;;;;;5073180;28;20443;-67
2023/02/23 04:54:39;;;;;;;87.90;24.43;;;;;;;;;;5073036;28;20471;-68
2023/02/23 04:57:07;;;;;;;86.30;24.97;;;;;;;;;;5072883;28;20466;-67
2023/02/23 04:59:34;;;;;;;80.00;21.60;;;;;;;;;;5072806;28;20457;-67
2023/02/23 05:02:02;;;;;;;82.37;22.83;;;;;;;;;;5072878;28;20479;-67
2023/02/23 05:04:29;;;;;;;82.67;23.90;;;;;;;;;;5073111;28;20456;-68
2023/02/23 05:06:58;;;;;;;82.17;22.53;;;;;;;;;;5072745;28;20944;-67
2023/02/23 05:09:25;;;;;;;83.10;22.10;;;;;;;;;;5072468;28;20799;-67
2023/02/23 05:11:52;;;;;;;82.57;23.53;;;;;;;;;;5072799;28;20458;-67
2023/02/23 05:14:19;;;;;;;82.73;22.23;;;;;;;;;;5072270;28;20447;-67
2023/02/23 05:16:46;;;;;;;85.70;21.75;;;;;;;;;;5072552;28;20967;-68
2023/02/23 05:19:13;;;;;;;83.93;22.20;;;;;;;;;;5072362;28;20212;-68
2023/02/23 05:21:41;;;;;;;82.30;21.80;;;;;;;;;;5072631;28;20449;-68
2023/02/23 05:24:09;;;;;;;82.70;22.60;;;;;;;;;;5072321;28;20459;-68
2023/02/23 05:26:37;;;;;;;84.77;23.47;;;;;;;;;;5072716;28;20448;-68
2023/02/23 05:29:05;;;;;;;80.53;23.10;;;;;;;;;;5072186;28;20447;-68
2023/02/23 05:31:32;;;;;;;82.27;22.80;;;;;;;;;;5072367;28;20455;-68
2023/02/23 05:33:59;;;;;;;81.47;23.40;;;;;;;;;;5072285;28;21020;-67
2023/02/23 05:36:26;;;;;;;88.03;25.23;;;;;;;;;;5072240;28;20505;-67
2023/02/23 05:38:54;;;;;;;85.37;24.10;;;;;;;;;;5072282;28;20451;-67
2023/02/23 05:41:23;;;;;;;84.30;24.30;;;;;;;;;;5072418;28;20446;-68
2023/02/23 05:43:51;;;;;;;86.77;25.47;;;;;;;;;;5072248;28;20479;-67
2023/02/23 05:46:20;;;;;;;85.53;25.00;;;;;;;;;;5071847;28;20475;-67
2023/02/23 05:48:47;;;;;;;90.70;25.43;;;;;;;;;;5071785;28;20459;-67
2023/02/23 05:51:15;;;;;;;93.03;29.20;;;;;;;;;;5071852;28;20447;-67
2023/02/23 05:53:42;;;;;;;91.57;27.10;;;;;;;;;;5072220;28;20443;-67
2023/02/23 05:56:12;;;;;;;91.53;28.10;;;;;;;;;;5071871;28;20475;-68
2023/02/23 05:58:40;;;;;;;89.40;27.77;;;;;;;;;;5071478;28;20565;-67
2023/02/23 06:01:07;;;;;;;94.20;27.37;;;;;;;;;;5072047;28;20447;-67
2023/02/23 06:03:35;;;;;;;86.93;26.83;;;;;;;;;;5071714;28;20475;-67
2023/02/23 06:06:02;;;;;;;85.07;24.17;;;;;;;;;;5072073;28;20475;-68
2023/02/23 06:08:29;;;;;;;86.07;25.33;;;;;;;;;;5071732;28;20816;-67
2023/02/23 06:10:56;;;;;;;89.90;24.90;;;;;;;;;;5071670;28;20450;-68
2023/02/23 06:13:23;;;;;;;88.27;25.50;;;;;;;;;;5071742;28;20447;-68
2023/02/23 06:15:51;;;;;;;90.37;27.50;;;;;;;;;;5071687;28;21009;-67
2023/02/23 06:18:20;;;;;;;91.80;27.97;;;;;;;;;;5071390;28;20457;-68
2023/02/23 06:20:47;;;;;;;83.93;24.67;;;;;;;;;;5071654;28;20877;-68
2023/02/23 06:23:15;;;;;;;93.63;25.90;;;;;;;;;;5071685;28;20491;-67
2023/02/23 06:25:42;;;;;;;88.27;26.07;;;;;;;;;;5071357;28;20532;-67
2023/02/23 06:28:09;;;;;;;91.20;28.77;;;;;;;;;;5071498;28;20827;-68
2023/02/23 06:30:37;;;;;;;92.60;28.20;;;;;;;;;;5071072;28;20467;-67
2023/02/23 06:33:06;;;;;;;92.93;27.63;;;;;;;;;;5071783;28;20467;-68
2023/02/23 06:35:33;;;;;;;86.10;25.57;;;;;;;;;;5071518;28;20471;-68
2023/02/23 06:38:01;;;;;;;86.27;25.90;;;;;;;;;;5071428;28;20816;-68
2023/02/23 06:40:29;;;;;;;87.53;27.40;;;;;;;;;;5071279;28;20447;-68
2023/02/23 06:42:56;;;;;;;88.47;28.33;;;;;;;;;;5071365;28;20486;-68
2023/02/23 06:45:24;;;;;;;86.90;26.40;;;;;;;;;;5071148;28;20580;-68
2023/02/23 06:47:52;;;;;;;90.17;27.70;;;;;;;;;;5071470;28;20447;-68
2023/02/23 06:50:21;;;;;;;92.40;27.77;;;;;;;;;;5071110;28;20478;-67
2023/02/23 06:52:48;;;;;;;96.23;28.37;;;;;;;;;;5071344;28;20543;-67
2023/02/23 06:55:16;;;;;;;98.27;30.10;;;;;;;;;;5071180;28;20894;-67
2023/02/23 06:57:43;;;;;;;92.63;29.20;;;;;;;;;;5071105;28;20817;-68
2023/02/23 07:00:11;;;;;;;93.37;28.33;;;;;;;;;;5071132;28;20451;-67
2023/02/23 07:02:38;;;;;;;94.27;29.87;;;;;;;;;;5071040;28;20576;-67
2023/02/23 07:05:05;;;;;;;94.93;29.27;;;;;;;;;;5071330;28;20470;-67
2023/02/23 07:07:34;;;;;;;90.80;29.60;;;;;;;;;;5071420;28;20452;-68
2023/02/23 07:10:01;;;;;;;94.63;30.37;;;;;;;;;;5070943;28;20458;-68
2023/02/23 07:12:28;;;;;;;95.30;29.20;;;;;;;;;;5070925;28;20966;-68
2023/02/23 07:14:56;;;;;;;96.77;30.40;;;;;;;;;;5071308;28;20566;-67
2023/02/23 07:17:23;;;;;;;94.93;30.58;;;;;;;;;;5071311;28;20450;-67
2023/02/23 07:19:50;;;;;;;98.07;31.50;;;;;;;;;;5070891;28;20708;-67
2023/02/23 07:22:17;;;;;;;92.40;29.10;;;;;;;;;;5071132;28;20451;-67
2023/02/23 07:24:47;;;;;;;95.77;30.70;;;;;;;;;;5070856;28;20463;-67
2023/02/23 07:27:14;;;;;;;89.63;28.33;;;;;;;;;;5071462;28;20478;-68
2023/02/23 07:29:41;;;;;;;93.27;29.97;;;;;;;;;;5070652;28;20940;-68
2023/02/23 07:32:08;;;;;;;95.93;30.03;;;;;;;;;;5071076;28;20451;-67
2023/02/23 07:34:35;;;;;;;97.70;30.80;;;;;;;;;;5070880;28;20474;-68
2023/02/23 07:37:03;;;;;;;91.37;29.70;;;;;;;;;;5072572;28;20455;-67
2023/02/23 07:39:30;;;;;;;93.87;28.03;;;;;;;;;;5074152;28;20451;-68
2023/02/23 07:41:59;;;;;;;92.20;30.73;;;;;;;;;;5074292;28;20990;-67
2023/02/23 07:44:26;;;;;;;92.37;29.17;;;;;;;;;;5074342;28;20494;-67
2023/02/23 07:46:53;;;;;;;94.30;29.77;;;;;;;;;;5074470;28;20457;-67
2023/02/23 07:49:20;;;;;;;92.93;30.50;;;;;;;;;;5073887;28;20803;-68
2023/02/23 07:51:47;;;;;;;100.17;28.70;;;;;;;;;;5074076;28;20447;-66
2023/02/23 07:54:14;;;;;;;95.33;30.70;;;;;;;;;;5074059;28;20812;-65
2023/02/23 07:56:41;;;;;;;91.07;29.30;;;;;;;;;;5074356;28;20501;-65
2023/02/23 07:59:10;;;;;;;91.47;28.30;;;;;;;;;;5073908;28;20447;-66
2023/02/23 08:01:37;;;;;;;98.97;28.10;;;;;;;;;;5074085;28;20447;-65
2023/02/23 08:04:04;;;;;;;88.30;27.67;;;;;;;;;;5074130;28;20493;-65
2023/02/23 08:06:31;;;;;;;87.40;27.57;;;;;;;;;;5073871;28;20991;-66
2023/02/23 08:08:59;;;;;;;90.90;28.47;;;;;;;;;;5073828;28;20447;-68
2023/02/23 08:11:27;;;;;;;93.90;28.87;;;;;;;;;;5074193;28;20835;-67
2023/02/23 08:13:58;;;;;;;88.43;26.83;;;;;;;;;;5073866;28;20858;-67
2023/02/23 08:16:27;;;;;;;86.40;25.70;;;;;;;;;;5073665;28;20557;-64
2023/02/23 08:18:54;;;;;;;88.37;27.00;;;;;;;;;;5073362;28;20443;-68
2023/02/23 08:21:21;;;;;;;92.10;26.50;;;;;;;;;;5073826;28;20451;-67
2023/02/23 08:23:48;;;;;;;84.17;24.97;;;;;;;;;;5073578;28;20487;-67
2023/02/23 08:26:15;;;;;;;91.80;27.07;;;;;;;;;;5073593;28;20498;-67
2023/02/23 08:28:44;;;;;;;90.07;26.70;;;;;;;;;;5073259;28;20448;-68
2023/02/23 08:31:11;;;;;;;88.57;26.13;;;;;;;;;;5073643;28;20458;-67
2023/02/23 08:33:40;;;;;;;92.60;28.10;;;;;;;;;;5073684;28;20448;-67
2023/02/23 08:36:08;;;;;;;90.03;28.00;;;;;;;;;;5073777;28;20463;-68
2023/02/23 08:38:36;;;;;;;91.33;28.20;;;;;;;;;;5073100;28;20447;-68
2023/02/23 08:41:03;;;;;;;92.17;29.87;;;;;;;;;;5073574;28;20442;-68
2023/02/23 08:43:30;;;;;;;92.27;28.33;;;;;;;;;;5073091;28;20479;-67
2023/02/23 08:45:57;;;;;;;89.67;28.90;;;;;;;;;;5073026;28;20463;-67
2023/02/23 08:48:25;;;;;;;98.10;27.30;;;;;;;;;;5073131;28;20457;-67
2023/02/23 08:50:57;;;;;;;85.93;26.37;;;;;;;;;;5073069;28;20455;-66
2023/02/23 08:53:26;;;;;;;89.80;26.83;;;;;;;;;;5073501;28;20803;-65
2023/02/23 08:55:55;;;;;;;93.70;27.40;;;;;;;;;;5072897;28;20479;-65
2023/02/23 08:58:23;;;;;;;86.77;26.30;;;;;;;;;;5072915;28;20454;-65
2023/02/23 09:00:50;;;;;;;86.47;25.47;;;;;;;;;;5072463;28;20448;-65
2023/02/23 09:03:17;;;;;;;84.67;24.53;;;;;;;;;;5072904;28;20485;-65
2023/02/23 09:05:44;;;;;;;85.30;25.40;;;;;;;;;;5072935;28;20464;-65
2023/02/23 09:08:13;;;;;;;87.10;25.70;;;;;;;;;;5072632;28;20455;-65
2023/02/23 09:10:42;;;;;;;84.37;22.70;;;;;;;;;;5072322;28;20448;-66
2023/02/23 09:13:10;;;;;;;87.60;26.40;;;;;;;;;;5072464;28;20455;-65
2023/02/23 09:15:37;;;;;;;86.30;25.30;;;;;;;;;;5072704;28;20837;-66
2023/02/23 09:18:04;;;;;;;88.90;25.67;;;;;;;;;;5072498;28;20447;-66
2023/02/23 09:20:31;;;;;;;87.97;25.10;;;;;;;;;;5072373;28;20469;-66
2023/02/23 09:22:58;;;;;;;85.27;25.40;;;;;;;;;;5072340;28;20471;-66
2023/02/23 09:25:28;;;;;;;85.40;25.50;;;;;;;;;;5072355;28;20467;-66
2023/02/23 09:27:56;;;;;;;87.00;24.70;;;;;;;;;;5072054;28;20466;-66
2023/02/23 09:30:24;;;;;;;88.33;23.93;;;;;;;;;;5071962;28;20451;-65
2023/02/23 09:32:51;;;;;;;80.13;22.10;;;;;;;;;;5072353;28;20473;-67
2023/02/23 09:35:19;;;;;;;90.43;25.03;;;;;;;;;;5072148;28;20461;-66
2023/02/23 09:37:47;;;;;;;84.77;25.20;;;;;;;;;;5072143;28;20439;-66
2023/02/23 09:40:15;;;;;;;88.17;26.57;;;;;;;;;;5071616;28;20443;-66
2023/02/23 09:42:47;;;;;;;82.83;23.60;;;;;;;;;;5072292;28;20447;-66
2023/02/23 09:45:19;;;;;;;79.63;22.70;;;;;;;;;;5071952;28;20858;-66
2023/02/23 09:47:52;;;;;;;80.73;22.30;;;;;;;;;;5072037;28;20451;-65
2023/02/23 09:50:22;;;;;;;91.00;23.80;;;;;;;;;;5071630;28;20455;-66
2023/02/23 09:52:51;;;;;;;81.27;22.90;;;;;;;;;;5071910;28;20451;-66
2023/02/23 09:55:18;;;;;;;82.20;24.30;;;;;;;;;;5071891;28;20466;-66
2023/02/23 09:57:48;;;;;;;77.77;22.00;;;;;;;;;;5071783;28;20447;-66
2023/02/23 10:00:17;;;;;;;82.90;22.00;;;;;;;;;;5071322;28;20447;-66
2023/02/23 10:02:52;;;;;;;85.67;22.10;;;;;;;;;;5071854;28;20454;-66
2023/02/23 10:05:19;;;;;;;78.50;21.10;;;;;;;;;;5071467;28;20497;-66
2023/02/23 10:07:50;;;;;;;78.50;19.53;;;;;;;;;;5071878;28;20455;-65
2023/02/23 10:10:20;;;;;;;78.93;20.60;;;;;;;;;;5071587;28;20455;-66
2023/02/23 10:12:51;;;;;;;75.07;18.43;;;;;;;;;;5071679;28;20939;-66
2023/02/23 10:15:26;;;;;;;73.40;17.53;;;;;;;;;;5071563;28;20463;-66
2023/02/23 10:18:02;;;;;;;74.30;16.33;;;;;;;;;;5071503;28;20461;-66
2023/02/23 10:20:35;;;;;;;73.77;16.00;;;;;;;;;;5071659;28;20955;-68
2023/02/23 10:23:05;;;;;;;69.40;13.53;;;;;;;;;;5071515;28;20459;-68
2023/02/23 10:25:34;;;;;;;70.00;12.70;;;;;;;;;;5071443;28;20483;-69
2023/02/23 10:28:03;;;;;;;71.20;13.00;;;;;;;;;;5071490;28;20447;-68
2023/02/23 10:30:31;;;;;;;67.43;11.90;;;;;;;;;;5071094;28;20462;-68
2023/02/23 10:33:04;;;;;;;70.60;13.60;;;;;;;;;;5071609;28;20447;-68
2023/02/23 10:35:32;;;;;;;69.30;11.80;;;;;;;;;;5071382;28;20463;-69
2023/02/23 10:38:00;;;;;;;69.17;13.60;;;;;;;;;;5071588;28;20463;-68
2023/02/23 10:40:30;;;;;;;69.70;13.70;;;;;;;;;;5071170;28;20452;-68
2023/02/23 10:42:58;;;;;;;68.30;12.33;;;;;;;;;;5071372;28;20940;-69
2023/02/23 10:45:27;;;;;;;69.40;12.60;;;;;;;;;;5071337;28;20491;-67
2023/02/23 10:47:57;;;;;;;71.10;12.60;;;;;;;;;;5071632;28;20466;-66
2023/02/23 10:50:27;;;;;;;69.63;12.43;;;;;;;;;;5071091;28;20444;-65
2023/02/23 10:52:55;;;;;;;73.33;12.60;;;;;;;;;;5071189;28;20501;-65
2023/02/23 10:55:25;;;;;;;68.67;13.20;;;;;;;;;;5070939;28;20984;-67
2023/02/23 10:58:02;;;;;;;68.70;11.47;;;;;;;;;;5071901;28;20449;-69
2023/02/23 11:00:32;;;;;;;69.07;12.13;;;;;;;;;;5071206;28;20455;-67
2023/02/23 11:02:59;;;;;;;66.97;12.30;;;;;;;;;;5071360;28;20512;-66
2023/02/23 11:05:35;;;;;;;71.30;12.90;;;;;;;;;;5071161;28;20495;-66
2023/02/23 11:08:25;;;;;;;67.37;11.07;;;;;;;;;;5071055;28;20451;-69
2023/02/23 11:11:00;;;;;;;74.43;12.43;;;;;;;;;;5071095;28;20789;-69
2023/02/23 11:13:29;;;;;;;69.47;11.57;;;;;;;;;;5075350;28;20454;-69
2023/02/23 11:16:01;;;;;;;67.30;10.27;;;;;;;;;;5074784;28;20473;-68
2023/02/23 11:18:29;;;;;;;68.93;9.80;;;;;;;;;;5074837;28;20447;-66
2023/02/23 11:20:56;;;;;;;68.67;10.67;;;;;;;;;;5074837;28;20451;-69
2023/02/23 11:23:27;;;;;;;67.67;10.10;;;;;;;;;;5074790;28;20486;-69
2023/02/23 11:25:55;;;;;;;70.10;10.40;;;;;;;;;;5074595;28;20479;-68
2023/02/23 11:28:24;;;;;;;64.40;9.10;;;;;;;;;;5074496;28;20970;-68
2023/02/23 11:30:51;;;;;;;65.80;8.43;;;;;;;;;;5074568;28;20446;-69
2023/02/23 11:33:22;;;;;;;65.40;7.40;;;;;;;;;;5074874;28;20443;-69
2023/02/23 11:35:49;;;;;;;67.00;9.27;;;;;;;;;;5074571;28;20469;-69
2023/02/23 11:38:17;;;;;;;62.17;6.70;;;;;;;;;;5074548;28;20451;-69
2023/02/23 11:40:58;;;;;;;66.83;8.23;;;;;;;;;;5074105;28;20939;-66
2023/02/23 11:43:25;;;;;;;63.60;8.23;;;;;;;;;;5074475;28;20451;-66
2023/02/23 11:45:55;;;;;;;63.77;8.50;;;;;;;;;;5074021;28;21003;-67
2023/02/23 11:48:27;;;;;;;69.50;8.43;;;;;;;;;;5074617;28;20954;-66
2023/02/23 11:50:55;;;;;;;64.10;7.50;;;;;;;;;;5074221;28;20447;-67
2023/02/23 11:53:27;;;;;;;64.87;7.80;;;;;;;;;;5074083;28;20952;-65
2023/02/23 11:55:58;;;;;;;63.00;7.43;;;16.50;99.90;;;;;;5074056;28;20501;-65
2023/02/23 11:58:32;;;;;;;65.43;6.80;;;15.50;1.00;;;;;;5074158;28;20455;-65
2023/02/23 12:01:00;;;;;;;63.97;7.60;;;15.60;1.00;;;;;;5074253;28;20447;-65
2023/02/23 12:03:31;;;;;;;64.10;7.50;;;15.50;1.00;;;;;;5073990;28;20450;-67
2023/02/23 12:06:01;;;;;;;64.60;8.03;;;15.10;1.00;;;;;;5073655;28;20487;-67
2023/02/23 12:08:37;;;;;;;64.03;7.43;;;15.80;1.00;;;;;;5073682;28;20451;-65
2023/02/23 12:11:11;;;;;;;62.97;7.10;;;16.10;1.00;;;;;;5074055;28;20461;-68
2023/02/23 12:13:42;;;;;;;63.30;7.57;;;16.50;1.00;;;;;;5073731;28;20814;-67
2023/02/23 12:16:16;;;;;;;64.67;7.40;;;17.00;1.00;;;;;;5073701;28;20459;-67
2023/02/23 12:18:51;;;;;;;63.60;7.60;;;17.20;1.00;;;;;;5073207;28;20450;-67
2023/02/23 12:21:29;;;;;;;63.50;6.70;;;16.90;99.90;;;;;;5073788;28;20536;-67
2023/02/23 12:24:05;;;;;;;62.47;6.87;;;17.10;1.00;;;;;;5072861;28;20455;-67
2023/02/23 12:26:36;;;;;;;63.13;7.33;;;16.70;99.90;;;;;;5073302;28;20463;-67
2023/02/23 12:29:10;;;;;;;64.30;7.77;;;16.90;99.90;;;;;;5073077;28;20443;-67
2023/02/23 12:31:43;;;;;;;65.97;6.70;;;17.50;99.90;;;;;;5073641;28;20452;-67
2023/02/23 12:34:17;;;;;;;64.53;6.97;;;17.30;99.90;;;;;;5073592;28;20439;-65
2023/02/23 12:36:50;;;;;;;64.20;7.10;;;17.10;99.90;;;;;;5073469;28;20455;-67
2023/02/23 12:39:26;;;;;;;63.20;6.93;;;16.30;99.90;;;;;;5072475;28;20940;-68
2023/02/23 12:42:04;;;;;;;63.47;6.37;;;16.10;99.90;;;;;;5073486;28;20504;-67
2023/02/23 12:44:39;;;;;;;63.53;6.20;;;16.00;99.90;;;;;;5073174;28;20487;-67
2023/02/23 12:47:23;;;;;;;63.40;6.53;;;16.60;99.90;;;;;;5073170;28;20946;-67
2023/02/23 12:49:59;;;;;;;62.97;6.40;;;16.40;99.90;;;;;;5072779;28;20458;-67
2023/02/23 12:52:30;;;;;;;61.90;5.93;;;16.10;99.90;;;;;;5073386;28;20453;-67
2023/02/23 12:54:57;;;;;;;63.13;6.13;;;15.90;99.90;;;;;;5073076;28;20456;-67
2023/02/23 12:57:33;;;;;;;63.13;6.90;;;15.40;99.90;;;;;;5073026;28;20465;-67
2023/02/23 13:00:32;;;;;;;63.60;7.40;;;15.80;99.90;;;;;;5072724;28;20447;-67
2023/02/23 13:03:31;;;;;;;66.00;8.70;;;15.60;99.90;;;;;;5073120;28;20454;-67
2023/02/23 13:06:07;;;;;;;66.37;8.57;;;15.30;99.90;;;;;;5047315;28;20510;-67
2023/02/23 13:08:51;;;;;;;64.83;7.60;;;15.20;99.90;;;;;;5072715;28;20466;-67
2023/02/23 13:11:25;;;;;;;73.00;7.60;;;;;;;;;;5072657;28;20452;-67
2023/02/23 13:13:58;;;;;;;64.27;7.30;;;;;;;;;;5072782;28;20447;-69
2023/02/23 13:16:30;;;;;;;64.00;7.40;;;;;;;;;;5072600;28;20545;-68
2023/02/23 13:19:03;;;;;;;65.77;8.67;;;;;;;;;;5072178;28;20447;-69
2023/02/23 13:21:34;;;;;;;64.10;7.13;;;;;;;;;;5072647;28;20447;-68
2023/02/23 13:24:02;;;;;;;63.67;7.40;;;;;;;;;;5072574;28;20606;-69
2023/02/23 13:26:35;;;;;;;64.97;7.23;;;;;;;;;;5072682;28;20502;-69
2023/02/23 13:29:04;;;;;;;62.60;7.10;;;;;;;;;;5072189;28;20448;-68
2023/02/23 13:31:33;;;;;;;70.63;8.90;;;;;;;;;;5072190;28;20447;-68
2023/02/23 13:34:02;;;;;;;63.60;6.70;;;;;;;;;;5071884;28;20824;-69
2023/02/23 13:36:30;;;;;;;63.57;7.50;;;;;;;;;;5072347;28;20459;-69
2023/02/23 13:39:23;;;;;;;63.80;8.00;;;;;;;;;;5071958;28;20459;-68
2023/02/23 13:41:54;;;;;;;66.93;8.77;;;;;;;;;;5072042;28;20439;-68
2023/02/23 13:44:25;;;;;;;66.97;8.47;;;;;;;;;;5071943;28;20454;-69
2023/02/23 13:46:55;;;;;;;64.20;7.73;;;;;;;;;;5072127;28;20832;-69
2023/02/23 13:49:35;;;;;;;63.83;8.17;;;;;;;;;;5071782;28;20831;-69
2023/02/23 13:52:09;;;;;;;69.47;8.67;;;;;;;;;;5072005;28;20451;-69
2023/02/23 13:54:38;;;;;;;68.47;7.00;;;;;;;;;;5071830;28;20471;-69
2023/02/23 13:57:11;;;;;;;70.10;8.30;;;;;;;;;;5072417;28;20886;-69
2023/02/23 13:59:42;;;;;;;70.27;8.20;;;;;;;;;;5072069;28;20451;-69
2023/02/23 14:02:22;;;;;;;64.37;8.10;;;;;;;;;;5071942;28;20566;-69
2023/02/23 14:04:50;;;;;;;66.13;7.60;;;;;;;;;;5071852;28;20855;-67
2023/02/23 14:07:18;;;;;;;68.17;8.17;;;;;;;;;;5072138;28;20447;-67
2023/02/23 14:09:49;;;;;;;65.80;7.40;;;;;;;;;;5071316;28;20966;-67
2023/02/23 14:12:19;;;;;;;66.20;7.60;;;;;;;;;;5072159;28;20451;-67
2023/02/23 14:14:47;;;;;;;66.10;7.40;;;;;;;;;;5071797;28;20479;-67
2023/02/23 14:17:39;;;;;;;65.67;7.37;;;;;;;;;;5071968;28;20447;-67
2023/02/23 14:20:13;;;;;;;71.17;9.03;;;;;;;;;;5071292;28;20932;-67
2023/02/23 14:22:55;;;;;;;68.63;7.50;;;;;;;;;;5071770;28;20816;-67
2023/02/23 14:25:41;;;;;;;71.13;8.80;;;;;;;;;;5071651;28;20882;-67
2023/02/23 14:28:23;;;;;;;66.10;7.67;;;;;;;;;;5071943;28;20455;-68
2023/02/23 14:31:00;;;;;;;66.27;7.50;;;15.30;99.90;;;;;;5071430;28;20447;-65
2023/02/23 14:33:48;;;;;;;65.30;8.23;;;16.20;1.00;;;;;;5071529;28;20446;-67
2023/02/23 14:36:43;;;;;;;62.07;6.93;;;17.50;1.00;;;;;;5071860;28;20474;-67
2023/02/23 14:39:17;;;;;;;63.73;6.80;;;18.70;99.90;;;;;;5071198;28;20443;-67
2023/02/23 14:41:48;;;;;;;65.30;6.03;;;;;;;;;;5071343;28;20443;-67
2023/02/23 14:44:18;;;;;;;65.70;6.33;;;;;;;;;;5071358;28;20447;-67
2023/02/23 14:46:49;;;;;;;64.00;6.67;;;;;;;;;;5074118;28;20486;-67
2023/02/23 14:49:19;;;;;;;63.50;6.80;;;;;;;;;;5075311;28;20459;-67
2023/02/23 14:51:48;;;;;;;66.40;7.30;;;;;;;;;;5075581;28;20455;-67
2023/02/23 14:54:23;;;;;;;64.60;6.87;;;;;;;;;;5075276;28;20443;-67
2023/02/23 14:56:52;;;;;;;67.73;7.20;;;;;;;;;;5075217;28;20450;-67
2023/02/23 14:59:21;;;;;;;66.40;6.57;;;;;;;;;;5074913;28;20447;-67
2023/02/23 15:01:49;;;;;;;63.73;6.30;;;;;;;;;;5075310;28;20497;-67
2023/02/23 15:04:18;;;;;;;61.90;5.70;;;;;;;;;;5074923;28;20453;-67
2023/02/23 15:06:46;;;;;;;64.27;7.07;;;;;;;;;;5074882;28;21064;-67
2023/02/23 15:09:16;;;;;;;64.60;6.90;;;;;;;;;;5074770;28;20478;-67
2023/02/23 15:11:45;;;;;;;72.17;6.90;;;;;;;;;;5075121;28;20455;-67
2023/02/23 15:14:14;;;;;;;70.07;7.30;;;;;;;;;;5074830;28;20940;-67
2023/02/23 15:16:43;;;;;;;63.07;6.90;;;;;;;;;;5075065;28;20474;-67
2023/02/23 15:19:14;;;;;;;64.40;6.63;;;;;;;;;;5074720;28;20481;-67
2023/02/23 15:21:41;;;;;;;66.20;6.73;;;;;;;;;;5074822;28;20959;-67
2023/02/23 15:24:11;;;;;;;63.70;7.23;;;;;;;;;;5074975;28;20466;-67
2023/02/23 15:26:39;;;;;;;69.90;6.93;;;;;;;;;;5075051;28;20487;-67
2023/02/23 15:29:07;;;;;;;62.40;7.40;;;;;;;;;;5074695;28;20455;-69
2023/02/23 15:31:35;;;;;;;67.60;7.20;;;;;;;;;;5074805;28;20443;-67
2023/02/23 15:34:03;;;;;;;64.50;7.27;;;;;;;;;;5074709;28;20451;-69
2023/02/23 15:36:33;;;;;;;62.87;7.77;;;;;;;;;;5074363;28;20559;-69
2023/02/23 15:39:01;;;;;;;67.63;7.23;;;;;;;;;;5074023;28;20936;-69
2023/02/23 15:41:31;;;;;;;69.67;7.30;;;;;;;;;;5074626;28;20537;-69
2023/02/23 15:44:02;;;;;;;65.23;6.90;;;;;;;;;;5074552;28;20569;-68